createdAt,value
2023-03-13T00:02:30.315Z,4.76
2023-03-13T00:05:36.380Z,4.70
2023-03-13T00:08:39.442Z,4.65
2023-03-13T00:11:42.912Z,4.68
2023-03-13T00:14:46.106Z,4.55
2023-03-13T00:17:51.258Z,4.56
2023-03-13T00:21:04.771Z,4.54
2023-03-13T00:24:08.888Z,4.47
2023-03-13T00:27:12.114Z,4.42
2023-03-13T00:30:15.596Z,4.39
2023-03-13T00:33:19.111Z,4.46
2023-03-13T00:36:27.134Z,4.61
2023-03-13T00:39:30.832Z,4.64
2023-03-13T00:42:34.845Z,4.65
2023-03-13T00:45:38.141Z,4.54
2023-03-13T00:48:41.747Z,4.51
2023-03-13T00:51:44.302Z,4.45
2023-03-13T00:54:48.357Z,4.55
2023-03-13T00:57:51.613Z,4.58
2023-03-13T01:00:55.528Z,4.59
2023-03-13T01:04:01.091Z,4.62
2023-03-13T01:07:04.440Z,4.62
2023-03-13T01:10:07.578Z,4.65
2023-03-13T01:13:10.495Z,4.50
2023-03-13T01:16:15.859Z,4.45
2023-03-13T01:19:19.440Z,4.42
2023-03-13T01:22:22.645Z,4.43
2023-03-13T01:25:25.230Z,4.40
2023-03-13T01:28:28.258Z,4.39
2023-03-13T01:31:32.161Z,4.42
2023-03-13T01:34:37.068Z,4.54
2023-03-13T01:37:40.555Z,4.56
2023-03-13T01:40:46.224Z,4.54
2023-03-13T01:43:49.300Z,4.62
2023-03-13T01:46:53.746Z,4.76
2023-03-13T01:49:56.910Z,4.69
2023-03-13T01:53:00.146Z,4.64
2023-03-13T01:56:07.615Z,4.69
2023-03-13T01:59:12.175Z,4.74
2023-03-13T02:02:16.481Z,4.77
2023-03-13T02:05:21.417Z,4.77
2023-03-13T02:08:31.886Z,4.78
2023-03-13T02:11:47.544Z,4.85
2023-03-13T02:14:52.200Z,4.82
2023-03-13T02:17:57.549Z,4.84
2023-03-13T02:21:06.685Z,4.95
2023-03-13T02:24:31.561Z,4.85
2023-03-13T02:27:34.757Z,4.87
2023-03-13T02:30:38.795Z,4.89
2023-03-13T02:33:43.511Z,4.89
2023-03-13T02:36:47.438Z,4.86
2023-03-13T02:39:52.085Z,4.81
2023-03-13T02:42:56.275Z,4.83
2023-03-13T02:46:03.379Z,4.81
2023-03-13T02:49:20.923Z,4.73
2023-03-13T02:52:40.076Z,4.70
2023-03-13T02:55:43.283Z,4.71
2023-03-13T02:58:50.308Z,4.69
2023-03-13T03:01:54.401Z,4.62
2023-03-13T03:04:57.389Z,4.59
2023-03-13T03:08:00.882Z,4.50
2023-03-13T03:11:06.329Z,4.48
2023-03-13T03:14:09.595Z,4.50
2023-03-13T03:17:12.087Z,4.49
2023-03-13T03:20:16.325Z,4.50
2023-03-13T03:23:19.920Z,4.48
2023-03-13T03:26:22.495Z,4.45
2023-03-13T03:29:26.033Z,4.35
2023-03-13T03:32:29.338Z,4.29
2023-03-13T03:35:33.131Z,4.12
2023-03-13T03:38:35.692Z,4.13
2023-03-13T03:41:56.317Z,4.06
2023-03-13T03:44:59.836Z,3.95
2023-03-13T03:48:05.562Z,3.82
2023-03-13T03:51:11.612Z,3.78
2023-03-13T03:54:15.357Z,3.70
2023-03-13T03:57:20.373Z,3.64
2023-03-13T04:00:24.059Z,3.63
2023-03-13T04:03:27.658Z,3.55
2023-03-13T04:06:34.385Z,3.41
2023-03-13T04:09:44.732Z,3.34
2023-03-13T04:12:52.332Z,3.42
2023-03-13T04:16:00.526Z,3.52
2023-03-13T04:19:03.934Z,3.54
2023-03-13T04:22:09.406Z,3.57
2023-03-13T04:25:18.223Z,3.60
2023-03-13T04:28:25.516Z,3.62
2023-03-13T04:31:29.613Z,3.67
2023-03-13T04:34:33.840Z,3.80
2023-03-13T04:37:38.489Z,3.85
2023-03-13T04:40:43.930Z,3.89
2023-03-13T04:43:49.173Z,3.92
2023-03-13T04:46:53.705Z,3.93
2023-03-13T04:49:57.321Z,3.94
2023-03-13T04:53:01.513Z,3.95
2023-03-13T04:56:05.845Z,3.98
2023-03-13T04:59:11.299Z,4.02
2023-03-13T05:02:14.896Z,4.00
2023-03-13T05:05:19.653Z,3.94
2023-03-13T05:08:42.802Z,4.06
2023-03-13T05:15:24.623Z,4.13
2023-03-13T05:18:32.209Z,4.21
2023-03-13T05:21:38.888Z,4.23
2023-03-13T05:24:56.128Z,4.28
2023-03-13T05:28:08.025Z,4.25
2023-03-13T05:31:15.544Z,4.24
2023-03-13T05:34:30.169Z,4.31
2023-03-13T05:37:45.241Z,4.29
2023-03-13T05:40:56.142Z,4.29
2023-03-13T05:43:59.528Z,4.27
2023-03-13T05:47:15.922Z,4.33
2023-03-13T05:50:31.412Z,4.36
2023-03-13T05:53:44.535Z,4.47
2023-03-13T05:56:55.308Z,4.46
2023-03-13T06:00:33.276Z,4.55
2023-03-13T06:03:38.271Z,4.64
2023-03-13T06:06:44.949Z,4.72
2023-03-13T06:10:00.821Z,4.75
2023-03-13T06:13:19.279Z,4.85
2023-03-13T06:16:43.481Z,5.05
2023-03-13T06:19:49.114Z,5.04
2023-03-13T06:22:53.232Z,5.12
2023-03-13T06:29:31.913Z,5.52
2023-03-13T06:32:52.177Z,6.54
2023-03-13T06:35:58.191Z,6.90
2023-03-13T06:39:09.839Z,7.46
2023-03-13T06:42:19.693Z,8.18
2023-03-13T06:45:23.424Z,7.98
2023-03-13T06:48:27.309Z,7.85
2023-03-13T06:51:45.282Z,7.57
2023-03-13T06:54:49.678Z,7.32
2023-03-13T06:58:02.338Z,7.18
2023-03-13T07:01:13.778Z,7.05
2023-03-13T07:07:40.486Z,6.83
2023-03-13T07:10:57.375Z,6.88
2023-03-13T07:14:15.792Z,7.14
2023-03-13T07:17:26.109Z,7.29
2023-03-13T07:20:29.712Z,7.43
2023-03-13T07:23:38.445Z,7.36
2023-03-13T07:27:04.120Z,7.41
2023-03-13T07:30:15.333Z,7.54
2023-03-13T07:33:25.713Z,7.59
2023-03-13T07:36:30.091Z,7.79
2023-03-13T07:39:33.357Z,7.94
2023-03-13T07:42:41.240Z,8.12
2023-03-13T07:46:00.004Z,8.21
2023-03-13T07:49:07.682Z,8.25
2023-03-13T07:52:11.674Z,8.17
2023-03-13T07:55:14.925Z,8.36
2023-03-13T07:58:18.004Z,8.55
2023-03-13T08:01:25.276Z,8.57
2023-03-13T08:04:29.194Z,8.55
2023-03-13T08:07:32.515Z,8.48
2023-03-13T08:10:35.103Z,8.51
2023-03-13T08:13:39.720Z,8.64
2023-03-13T08:16:44.380Z,8.57
2023-03-13T08:19:48.037Z,8.40
2023-03-13T08:22:57.299Z,8.43
2023-03-13T08:26:12.365Z,8.41
2023-03-13T08:29:16.363Z,8.45
2023-03-13T08:32:20.608Z,8.41
2023-03-13T08:35:24.634Z,8.66
2023-03-13T08:38:27.611Z,8.73
2023-03-13T08:41:34.486Z,8.84
2023-03-13T08:44:45.581Z,8.87
2023-03-13T08:47:54.079Z,8.98
2023-03-13T08:51:24.257Z,9.27
2023-03-13T08:54:28.242Z,9.26
2023-03-13T08:57:32.084Z,9.21
2023-03-13T09:00:35.665Z,9.13
2023-03-13T09:03:39.525Z,9.24
2023-03-13T09:06:43.282Z,9.38
2023-03-13T09:09:51.489Z,9.60
2023-03-13T09:12:55.279Z,9.85
2023-03-13T09:15:59.109Z,9.93
2023-03-13T09:19:06.504Z,10.04
2023-03-13T09:22:15.618Z,10.09
2023-03-13T09:25:18.716Z,10.06
2023-03-13T09:28:22.140Z,10.18
2023-03-13T09:31:31.151Z,10.47
2023-03-13T09:34:37.643Z,10.56
2023-03-13T09:37:41.038Z,10.61
2023-03-13T09:41:06.471Z,10.88
2023-03-13T09:44:16.213Z,11.11
2023-03-13T09:47:18.514Z,11.18
2023-03-13T09:50:29.040Z,11.42
2023-03-13T09:53:51.971Z,11.61
2023-03-13T09:57:01.147Z,11.68
2023-03-13T10:00:21.103Z,11.94
2023-03-13T10:03:28.818Z,11.78
2023-03-13T10:06:35.832Z,11.92
2023-03-13T10:09:45.748Z,11.92
2023-03-13T10:12:51.614Z,11.72
2023-03-13T10:16:01.639Z,11.68
2023-03-13T10:19:14.312Z,11.74
2023-03-13T10:22:27.529Z,12.10
2023-03-13T10:25:30.556Z,12.10
2023-03-13T10:28:34.539Z,12.20
2023-03-13T10:31:39.567Z,12.33
2023-03-13T10:34:56.377Z,12.45
2023-03-13T10:38:12.483Z,12.36
2023-03-13T10:41:28.280Z,12.18
2023-03-13T10:44:33.936Z,12.42
2023-03-13T10:47:37.228Z,12.65
2023-03-13T10:50:42.664Z,12.64
2023-03-13T10:53:48.487Z,12.76
2023-03-13T10:56:53.068Z,12.78
2023-03-13T10:59:56.881Z,12.77
2023-03-13T11:03:00.540Z,12.83
2023-03-13T11:06:04.810Z,12.93
2023-03-13T11:09:15.791Z,12.98
2023-03-13T11:12:23.385Z,13.04
2023-03-13T11:15:36.927Z,13.00
2023-03-13T11:18:54.459Z,12.96
2023-03-13T11:22:15.440Z,13.03
2023-03-13T11:25:25.540Z,13.06
2023-03-13T11:28:51.864Z,13.32
2023-03-13T11:32:05.639Z,13.72
2023-03-13T11:35:32.672Z,13.87
2023-03-13T11:38:43.745Z,14.12
2023-03-13T11:41:46.827Z,14.02
2023-03-13T11:45:08.253Z,14.15
2023-03-13T11:48:23.364Z,14.20
2023-03-13T11:51:40.701Z,14.44
2023-03-13T11:54:46.617Z,14.58
2023-03-13T11:57:58.101Z,14.66
2023-03-13T12:01:14.127Z,14.49
2023-03-13T12:04:26.312Z,14.45
2023-03-13T12:07:37.892Z,14.03
2023-03-13T12:10:44.824Z,14.22
2023-03-13T12:13:56.016Z,14.27
2023-03-13T12:17:01.837Z,14.48
2023-03-13T12:20:13.324Z,14.57
2023-03-13T12:23:21.107Z,14.64
2023-03-13T12:26:29.850Z,14.61
2023-03-13T12:29:44.916Z,14.65
2023-03-13T12:32:57.684Z,14.73
2023-03-13T12:36:21.092Z,15.05
2023-03-13T12:39:30.672Z,15.60
2023-03-13T12:42:42.265Z,15.66
2023-03-13T12:46:00.662Z,15.71
2023-03-13T12:49:09.781Z,15.47
2023-03-13T12:52:22.864Z,15.44
2023-03-13T12:55:37.120Z,15.43
2023-03-13T12:58:45.766Z,15.46
2023-03-13T13:01:52.140Z,15.64
2023-03-13T13:04:59.709Z,15.55
2023-03-13T13:08:03.138Z,15.50
2023-03-13T13:11:25.056Z,15.66
2023-03-13T13:14:27.649Z,15.73
2023-03-13T13:17:49.506Z,15.80
2023-03-13T13:21:07.419Z,15.61
2023-03-13T13:24:49.202Z,15.51
2023-03-13T13:27:53.530Z,15.41
2023-03-13T13:30:58.116Z,15.32
2023-03-13T13:34:01.241Z,15.48
2023-03-13T13:37:24.406Z,15.74
2023-03-13T13:40:31.512Z,15.82
2023-03-13T13:43:44.035Z,15.77
2023-03-13T13:46:52.399Z,15.78
2023-03-13T13:49:57.366Z,15.97
2023-03-13T13:53:18.715Z,16.06
2023-03-13T13:56:29.973Z,16.00
2023-03-13T13:59:37.574Z,16.06
2023-03-13T14:02:48.458Z,16.16
2023-03-13T14:05:53.048Z,16.20
2023-03-13T14:08:59.445Z,16.22
2023-03-13T14:12:03.171Z,16.16
2023-03-13T14:15:20.155Z,15.80
2023-03-13T14:18:25.740Z,15.83
2023-03-13T14:21:29.242Z,15.83
2023-03-13T14:24:32.952Z,15.90
2023-03-13T14:27:43.836Z,15.99
2023-03-13T14:30:47.538Z,15.99
2023-03-13T14:33:51.058Z,15.94
2023-03-13T14:37:04.330Z,15.99
2023-03-13T14:40:17.238Z,16.18
2023-03-13T14:43:23.067Z,16.33
2023-03-13T14:46:26.039Z,16.50
2023-03-13T14:49:32.461Z,16.43
2023-03-13T14:52:40.257Z,16.36
2023-03-13T14:55:43.510Z,16.24
2023-03-13T14:58:47.827Z,16.11
2023-03-13T15:02:01.083Z,16.15
2023-03-13T15:05:06.934Z,16.24
2023-03-13T15:08:20.368Z,16.20
2023-03-13T15:11:31.039Z,16.08
2023-03-13T15:14:37.101Z,15.83
2023-03-13T15:17:39.669Z,15.68
2023-03-13T15:20:42.160Z,15.66
2023-03-13T15:23:49.750Z,15.50
2023-03-13T15:26:53.982Z,15.33
2023-03-13T15:29:57.379Z,15.29
2023-03-13T15:33:00.596Z,15.22
2023-03-13T15:36:03.203Z,15.15
2023-03-13T15:39:08.209Z,14.94
2023-03-13T15:42:11.307Z,14.74
2023-03-13T15:45:15.085Z,14.57
2023-03-13T15:48:28.932Z,14.33
2023-03-13T15:51:32.966Z,14.16
2023-03-13T15:54:37.170Z,14.05
2023-03-13T15:57:44.010Z,13.93
2023-03-13T16:00:49.736Z,13.83
2023-03-13T16:03:53.107Z,13.75
2023-03-13T16:06:57.126Z,13.72
2023-03-13T16:10:00.982Z,13.68
2023-03-13T16:13:04.578Z,13.60
2023-03-13T16:16:33.348Z,13.55
2023-03-13T16:19:38.987Z,13.46
2023-03-13T16:22:43.719Z,13.38
2023-03-13T16:25:49.754Z,13.31
2023-03-13T16:28:55.641Z,13.26
2023-03-13T16:31:58.745Z,13.19
2023-03-13T16:35:03.672Z,13.12
2023-03-13T16:38:08.818Z,13.06
2023-03-13T16:41:17.570Z,12.99
2023-03-13T16:44:21.050Z,12.96
2023-03-13T16:47:29.070Z,12.87
2023-03-13T16:50:39.313Z,12.77
2023-03-13T16:53:43.348Z,12.73
2023-03-13T16:56:46.841Z,12.73
2023-03-13T16:59:52.177Z,12.68
2023-03-13T17:02:57.629Z,12.66
2023-03-13T17:06:01.033Z,12.64
2023-03-13T17:09:06.788Z,12.55
2023-03-13T17:12:10.189Z,12.53
2023-03-13T17:15:14.213Z,12.50
2023-03-13T17:18:17.060Z,12.47
2023-03-13T17:21:27.460Z,12.40
2023-03-13T17:24:30.765Z,12.34
2023-03-13T17:27:34.669Z,12.31
2023-03-13T17:30:38.165Z,12.23
2023-03-13T17:33:43.107Z,12.12
2023-03-13T17:36:46.904Z,12.07
2023-03-13T17:39:53.080Z,11.99
2023-03-13T17:42:57.099Z,11.96
2023-03-13T17:46:01.413Z,11.86
2023-03-13T17:49:05.738Z,11.75
2023-03-13T17:52:12.820Z,11.60
2023-03-13T17:55:16.322Z,11.55
2023-03-13T17:58:19.924Z,11.51
2023-03-13T18:01:24.116Z,11.51
2023-03-13T18:04:30.824Z,11.46
2023-03-13T18:07:35.966Z,11.45
2023-03-13T18:10:41.414Z,11.41
2023-03-13T18:13:48.452Z,11.26
2023-03-13T18:16:51.906Z,11.23
2023-03-13T18:19:56.852Z,11.19
2023-03-13T18:23:01.581Z,11.10
2023-03-13T18:26:20.537Z,11.02
2023-03-13T18:29:29.784Z,10.89
2023-03-13T18:32:35.978Z,10.83
2023-03-13T18:35:38.969Z,10.73
2023-03-13T18:38:42.650Z,10.58
2023-03-13T18:41:46.254Z,10.45
2023-03-13T18:44:49.454Z,10.30
2023-03-13T18:47:53.671Z,10.29
2023-03-13T18:51:00.134Z,10.28
2023-03-13T18:54:03.887Z,10.21
2023-03-13T18:57:14.933Z,10.19
2023-03-13T19:00:21.327Z,10.19
2023-03-13T19:03:28.081Z,10.24
2023-03-13T19:06:36.135Z,10.24
2023-03-13T19:09:45.353Z,10.13
2023-03-13T19:12:50.676Z,10.08
2023-03-13T19:15:57.362Z,10.08
2023-03-13T19:19:01.901Z,10.05
2023-03-13T19:22:05.387Z,10.03
2023-03-13T19:25:09.607Z,10.07
2023-03-13T19:28:13.933Z,9.98
2023-03-13T19:31:18.669Z,10.05
2023-03-13T19:34:22.161Z,10.06
2023-03-13T19:37:25.142Z,10.10
2023-03-13T19:40:29.297Z,10.18
2023-03-13T19:43:34.097Z,10.14
2023-03-13T19:46:44.673Z,10.14
2023-03-13T19:49:51.888Z,10.08
2023-03-13T19:52:55.464Z,10.00
2023-03-13T19:55:59.952Z,10.00
2023-03-13T19:59:06.673Z,9.89
2023-03-13T20:02:12.732Z,9.85
2023-03-13T20:05:18.181Z,9.92
2023-03-13T20:08:22.704Z,9.86
2023-03-13T20:11:27.742Z,9.76
2023-03-13T20:14:32.521Z,9.67
2023-03-13T20:17:36.004Z,9.58
2023-03-13T20:20:42.059Z,9.44
2023-03-13T20:23:48.446Z,9.29
2023-03-13T20:26:52.614Z,9.18
2023-03-13T20:29:56.140Z,9.12
2023-03-13T20:33:00.199Z,9.14
2023-03-13T20:36:04.642Z,9.10
2023-03-13T20:39:09.219Z,8.96
2023-03-13T20:42:14.061Z,8.89
2023-03-13T20:45:17.775Z,8.82
2023-03-13T20:48:22.089Z,8.77
2023-03-13T20:51:26.311Z,8.70
2023-03-13T20:54:30.828Z,8.70
2023-03-13T20:57:35.256Z,8.66
2023-03-13T21:00:38.564Z,8.53
2023-03-13T21:03:42.154Z,8.43
2023-03-13T21:06:49.677Z,8.44
2023-03-13T21:09:53.275Z,8.35
2023-03-13T21:12:56.749Z,8.31
2023-03-13T21:16:03.701Z,8.46
2023-03-13T21:19:07.357Z,8.47
2023-03-13T21:22:11.560Z,8.47
2023-03-13T21:25:16.624Z,8.37
2023-03-13T21:28:20.458Z,8.29
2023-03-13T21:31:24.068Z,8.22
2023-03-13T21:34:27.926Z,8.19
2023-03-13T21:37:32.279Z,8.30
2023-03-13T21:40:35.855Z,8.13
2023-03-13T21:43:44.604Z,8.03
2023-03-13T21:46:49.589Z,7.96
2023-03-13T21:49:57.939Z,7.81
2023-03-13T21:53:01.964Z,7.77
2023-03-13T21:56:06.039Z,7.66
2023-03-13T21:59:09.778Z,7.56
2023-03-13T22:02:15.037Z,7.57
2023-03-13T22:05:19.137Z,7.57
2023-03-13T22:08:22.745Z,7.53
2023-03-13T22:11:26.861Z,7.52
2023-03-13T22:14:30.678Z,7.44
2023-03-13T22:17:33.348Z,7.40
2023-03-13T22:20:37.165Z,7.31
2023-03-13T22:23:41.524Z,7.29
2023-03-13T22:26:45.013Z,7.39
2023-03-13T22:29:51.065Z,7.34
2023-03-13T22:32:54.415Z,7.24
2023-03-13T22:35:57.301Z,7.27
2023-03-13T22:39:03.001Z,7.35
2023-03-13T22:42:07.559Z,7.32
2023-03-13T22:45:12.154Z,7.29
2023-03-13T22:48:15.868Z,7.50
2023-03-13T22:51:19.166Z,7.49
2023-03-13T22:54:23.799Z,7.42
2023-03-13T22:57:30.274Z,7.45
2023-03-13T23:00:33.138Z,7.39
2023-03-13T23:03:37.171Z,7.41
2023-03-13T23:06:39.745Z,7.29
2023-03-13T23:09:43.973Z,7.32
2023-03-13T23:12:47.809Z,7.23
2023-03-13T23:15:57.964Z,7.25
2023-03-13T23:19:03.286Z,7.26
2023-03-13T23:22:07.818Z,7.20
2023-03-13T23:25:14.505Z,7.18
2023-03-13T23:28:18.622Z,7.17
2023-03-13T23:31:22.749Z,7.04
2023-03-13T23:34:26.643Z,6.99
2023-03-13T23:37:30.563Z,6.92
2023-03-13T23:40:34.678Z,6.87
2023-03-13T23:43:38.376Z,6.74
2023-03-13T23:46:41.112Z,6.64
2023-03-13T23:49:44.875Z,6.58
2023-03-13T23:52:49.745Z,6.54
2023-03-13T23:56:00.170Z,6.46
2023-03-13T23:59:07.258Z,6.44
